Time;durP1;ratioP1;P1;durP2;ratioP2;P2;SDS_P1;SDS_P2;PMS_P1;PMS_P2;Temp;Humidity;BMP_temperature;BMP_pressure;BME280_temperature;BME280_humidity;BME280_pressure;Samples;Min_cycle;Max_cycle;Signal;HPM_P1;HPM_P2
2021/05/04 00:00:41;;;;;;;2.42;1.85;;;9.20;99.90;;;;;;6244675;23;20011;-79
2021/05/04 00:03:06;;;;;;;2.40;1.65;;;9.20;99.90;;;;;;6244636;23;20000;-78
2021/05/04 00:05:32;;;;;;;9.88;2.25;;;9.20;99.90;;;;;;6244432;23;20439;-79
2021/05/04 00:07:58;;;;;;;4.68;2.25;;;9.20;99.90;;;;;;6218162;23;20012;-78
2021/05/04 00:10:23;;;;;;;3.05;1.55;;;9.20;99.90;;;;;;6243995;22;20134;-78
2021/05/04 00:12:49;;;;;;;4.22;1.70;;;9.10;99.90;;;;;;6244673;23;20000;-78
2021/05/04 00:15:15;;;;;;;6.50;1.50;;;9.20;99.90;;;;;;6244439;23;20058;-78
2021/05/04 00:17:41;;;;;;;2.65;1.88;;;9.10;99.90;;;;;;6217445;23;20015;-79
2021/05/04 00:20:07;;;;;;;3.28;1.92;;;9.10;99.90;;;;;;6244333;23;20036;-79
2021/05/04 00:22:33;;;;;;;3.47;2.10;;;9.20;99.90;;;;;;6244221;23;20312;-78
2021/05/04 00:24:59;;;;;;;5.95;1.95;;;9.20;99.90;;;;;;6244248;23;20014;-78
2021/05/04 00:27:24;;;;;;;6.30;1.90;;;9.20;99.90;;;;;;6244535;23;19996;-79
2021/05/04 00:29:50;;;;;;;3.60;1.55;;;9.20;99.90;;;;;;6244383;23;20447;-79
2021/05/04 00:32:16;;;;;;;5.47;2.05;;;9.10;99.90;;;;;;6244303;23;20058;-78
2021/05/04 00:34:41;;;;;;;2.03;1.65;;;9.20;99.90;;;;;;6217173;23;20000;-78
2021/05/04 00:37:07;;;;;;;4.75;1.92;;;9.10;99.90;;;;;;6244603;23;20024;-79
2021/05/04 00:39:37;;;;;;;4.85;1.83;;;9.10;99.90;;;;;;6217214;23;20004;-79
2021/05/04 00:42:04;;;;;;;3.03;1.98;;;9.10;99.90;;;;;;6244685;23;20028;-79
2021/05/04 00:44:30;;;;;;;4.80;1.63;;;9.10;99.90;;;;;;6243854;23;20396;-79
2021/05/04 00:46:56;;;;;;;2.43;1.47;;;9.10;99.90;;;;;;6217508;23;20117;-79
2021/05/04 00:49:22;;;;;;;2.67;1.77;;;9.00;99.90;;;;;;6217215;23;20004;-79
2021/05/04 00:51:55;;;;;;;2.75;1.58;;;9.00;99.90;;;;;;6244296;23;19996;-78
2021/05/04 00:54:22;;;;;;;3.30;1.77;;;9.10;99.90;;;;;;6243939;23;20312;-78
2021/05/04 00:56:48;;;;;;;5.22;1.50;;;9.00;99.90;;;;;;6244426;23;20066;-78
2021/05/04 00:59:15;;;;;;;3.60;1.85;;;9.10;99.90;;;;;;6216972;23;20346;-78
2021/05/04 01:01:41;;;;;;;3.85;1.95;;;9.00;99.90;;;;;;6244145;23;20004;-78
2021/05/04 01:04:07;;;;;;;3.47;1.85;;;9.00;99.90;;;;;;6243849;23;20320;-78
2021/05/04 01:06:33;;;;;;;7.03;2.03;;;8.90;99.90;;;;;;6243967;23;20000;-78
2021/05/04 01:08:58;;;;;;;6.28;1.98;;;8.90;99.90;;;;;;6244044;23;20042;-78
2021/05/04 01:11:24;;;;;;;3.85;2.10;;;8.90;99.90;;;;;;6243800;22;20016;-77
2021/05/04 01:13:54;;;;;;;7.57;1.60;;;8.80;99.90;;;;;;6244014;23;20009;-79
2021/05/04 01:16:20;;;;;;;5.85;1.77;;;8.80;99.90;;;;;;6244085;23;20027;-79
2021/05/04 01:18:46;;;;;;;2.78;1.50;;;8.80;99.90;;;;;;6243710;23;20015;-79
2021/05/04 01:21:12;;;;;;;4.50;1.63;;;8.80;99.90;;;;;;6217083;23;20442;-79
2021/05/04 01:23:38;;;;;;;7.15;1.73;;;8.80;99.90;;;;;;6243992;23;20008;-80
2021/05/04 01:26:04;;;;;;;3.40;1.60;;;8.80;99.90;;;;;;6217165;23;20000;-80
2021/05/04 01:28:30;;;;;;;3.25;1.90;;;8.80;99.90;;;;;;6243804;23;19992;-79
2021/05/04 01:30:56;;;;;;;3.22;1.88;;;8.80;99.90;;;;;;6243806;23;20051;-79
2021/05/04 01:33:22;;;;;;;3.00;1.67;;;8.70;99.90;;;;;;6243071;23;20465;-80
2021/05/04 01:35:48;;;;;;;5.25;1.73;;;8.70;99.90;;;;;;6243778;23;20007;-80
2021/05/04 01:38:14;;;;;;;2.75;1.30;;;8.70;99.90;;;;;;6243731;23;20084;-79
2021/05/04 01:40:40;;;;;;;2.33;1.42;;;8.70;99.90;;;;;;6216722;23;20039;-80
2021/05/04 01:43:05;;;;;;;4.72;1.73;;;8.70;99.90;;;;;;6243904;23;20012;-80
2021/05/04 01:45:31;;;;;;;5.28;1.80;;;8.70;99.90;;;;;;6216735;23;20004;-80
2021/05/04 01:47:57;;;;;;;3.55;1.50;;;8.70;99.90;;;;;;6243805;23;20000;-79
2021/05/04 01:50:23;;;;;;;6.93;1.67;;;8.70;99.90;;;;;;6243170;23;20004;-80
2021/05/04 01:52:49;;;;;;;4.15;2.25;;;8.80;99.90;;;;;;6217018;23;20062;-79
2021/05/04 01:55:14;;;;;;;9.70;1.90;;;8.80;99.90;;;;;;6243352;23;20000;-79
2021/05/04 01:57:40;;;;;;;3.92;1.80;;;8.80;99.90;;;;;;6243568;23;19992;-80
2021/05/04 02:00:08;;;;;;;3.17;1.80;;;8.70;99.90;;;;;;6243398;23;20011;-79
2021/05/04 02:02:35;;;;;;;1.98;1.40;;;8.70;99.90;;;;;;6243065;23;20081;-80
2021/05/04 02:05:00;;;;;;;3.80;1.70;;;8.70;99.90;;;;;;6243211;23;20012;-79
2021/05/04 02:07:26;;;;;;;4.38;1.60;;;8.60;99.90;;;;;;6243578;23;19999;-80
2021/05/04 02:09:52;;;;;;;4.00;1.60;;;8.60;99.90;;;;;;6243342;22;20035;-80
2021/05/04 02:12:18;;;;;;;2.75;1.60;;;8.60;99.90;;;;;;6243605;23;20079;-79
2021/05/04 02:14:44;;;;;;;5.65;1.90;;;8.60;99.90;;;;;;6216203;23;20000;-80
2021/05/04 02:17:10;;;;;;;3.40;1.88;;;8.60;99.90;;;;;;6216818;23;20487;-81
2021/05/04 02:19:37;;;;;;;3.80;1.45;;;8.60;99.90;;;;;;6216175;23;20007;-80
2021/05/04 02:22:03;;;;;;;;;;;8.50;99.90;;;;;;6244100;23;20000;-79
2021/05/04 02:24:29;;;;;;;4.05;1.60;;;8.60;99.90;;;;;;6243049;23;19908;-80
2021/05/04 02:26:54;;;;;;;6.53;1.50;;;8.50;99.90;;;;;;6243638;23;20004;-80
2021/05/04 02:29:20;;;;;;;3.90;1.48;;;8.40;99.90;;;;;;6243157;23;20011;-79
2021/05/04 02:31:46;;;;;;;4.13;1.85;;;8.50;99.90;;;;;;6216299;23;20000;-79
2021/05/04 02:34:11;;;;;;;3.65;1.50;;;8.40;99.90;;;;;;6243161;23;20419;-80
2021/05/04 02:36:37;;;;;;;4.18;1.90;;;8.40;99.90;;;;;;6243369;23;19999;-80
2021/05/04 02:39:06;;;;;;;4.35;1.67;;;8.40;99.90;;;;;;6243217;23;20019;-80
2021/05/04 02:41:31;;;;;;;3.08;1.73;;;8.40;99.90;;;;;;6243019;23;20050;-79
2021/05/04 02:43:57;;;;;;;3.70;1.80;;;8.30;99.90;;;;;;6216362;23;20019;-80
2021/05/04 02:46:23;;;;;;;5.97;2.03;;;8.30;99.90;;;;;;6243218;23;19997;-80
2021/05/04 02:48:48;;;;;;;3.83;1.77;;;8.30;99.90;;;;;;6242736;23;20460;-80
2021/05/04 02:51:14;;;;;;;5.78;1.95;;;8.20;99.90;;;;;;6216607;23;20004;-79
2021/05/04 02:53:40;;;;;;;8.77;1.95;;;8.20;99.90;;;;;;6242923;23;20004;-80
2021/05/04 02:56:07;;;;;;;5.97;1.67;;;8.10;99.90;;;;;;6243527;23;20004;-80
2021/05/04 02:58:32;;;;;;;10.02;2.00;;;8.10;99.90;;;;;;6216265;23;20004;-79
2021/05/04 03:00:58;;;;;;;3.78;1.30;;;8.10;99.90;;;;;;6243227;23;20332;-79
2021/05/04 03:03:24;;;;;;;9.57;2.10;;;8.10;99.90;;;;;;6242935;23;20004;-79
2021/05/04 03:05:53;;;;;;;4.45;1.65;;;8.10;99.90;;;;;;6243113;23;20011;-79
2021/05/04 03:08:19;;;;;;;4.63;1.85;;;8.10;99.90;;;;;;6243233;23;19996;-79
2021/05/04 03:10:45;;;;;;;9.15;1.80;;;8.20;99.90;;;;;;6242869;22;20095;-80
2021/05/04 03:13:11;;;;;;;4.55;1.90;;;8.20;99.90;;;;;;6243301;23;20416;-79
2021/05/04 03:15:36;;;;;;;5.65;1.98;;;8.20;99.90;;;;;;6243098;23;20028;-79
2021/05/04 03:18:02;;;;;;;9.02;2.35;;;8.20;99.90;;;;;;6243143;23;20074;-80
2021/05/04 03:20:28;;;;;;;2.30;1.55;;;8.20;99.90;;;;;;6242958;23;20031;-80
2021/05/04 03:22:54;;;;;;;5.68;2.13;;;8.20;99.90;;;;;;6242966;23;20086;-80
2021/05/04 03:25:20;;;;;;;5.15;1.60;;;8.20;99.90;;;;;;6243042;23;20082;-80
2021/05/04 03:27:46;;;;;;;4.45;2.13;;;8.10;99.90;;;;;;6243149;23;20387;-80
2021/05/04 03:30:12;;;;;;;2.53;1.33;;;8.10;99.90;;;;;;6242901;23;20031;-79
2021/05/04 03:32:40;;;;;;;3.08;1.48;;;8.20;99.90;;;;;;6243031;23;19996;-80
2021/05/04 03:35:10;;;;;;;4.63;1.70;;;8.20;99.90;;;;;;6242999;23;20092;-80
2021/05/04 03:37:36;;;;;;;5.03;1.52;;;8.30;99.90;;;;;;6243075;23;20001;-79
2021/05/04 03:40:03;;;;;;;3.72;1.70;;;8.30;99.90;;;;;;6242986;23;20050;-79
2021/05/04 03:42:29;;;;;;;4.10;1.90;;;8.30;99.90;;;;;;6243151;23;20078;-80
2021/05/04 03:44:54;;;;;;;5.95;1.90;;;8.30;99.90;;;;;;6242856;23;20007;-79
2021/05/04 03:47:20;;;;;;;3.38;1.80;;;8.40;99.90;;;;;;6243232;23;20062;-80
2021/05/04 03:49:46;;;;;;;2.63;1.90;;;8.40;99.90;;;;;;6215884;23;20556;-80
2021/05/04 03:52:11;;;;;;;11.82;1.90;;;8.30;99.90;;;;;;6216250;23;20023;-80
2021/05/04 03:54:37;;;;;;;8.23;2.40;;;8.30;99.90;;;;;;6216019;23;20004;-80
2021/05/04 03:57:03;;;;;;;2.65;1.65;;;8.20;99.90;;;;;;6216420;23;20477;-80
2021/05/04 03:59:28;;;;;;;4.88;1.63;;;8.20;99.90;;;;;;6244423;23;20000;-80
2021/05/04 04:01:54;;;;;;;2.42;1.63;;;8.20;99.90;;;;;;6244598;23;20533;-80
2021/05/04 04:04:20;;;;;;;5.32;1.80;;;8.20;99.90;;;;;;6244486;23;20012;-79
2021/05/04 04:06:46;;;;;;;4.57;1.73;;;8.20;99.90;;;;;;6244708;23;20007;-79
2021/05/04 04:09:11;;;;;;;6.20;1.58;;;8.30;99.90;;;;;;6244769;23;20458;-80
2021/05/04 04:11:37;;;;;;;3.55;2.03;;;8.30;99.90;;;;;;6241711;22;20018;-80
2021/05/04 04:14:04;;;;;;;3.22;1.67;;;8.30;99.90;;;;;;6242573;23;20073;-79
2021/05/04 04:16:30;;;;;;;3.45;1.63;;;8.30;99.90;;;;;;6244581;23;20066;-80
2021/05/04 04:18:56;;;;;;;6.05;1.85;;;8.40;99.90;;;;;;6242654;23;20000;-79
2021/05/04 04:21:21;;;;;;;3.80;2.28;;;8.40;99.90;;;;;;6244714;23;20043;-79
2021/05/04 04:23:47;;;;;;;6.22;2.58;;;8.40;99.90;;;;;;6242709;23;20008;-81
2021/05/04 04:26:13;;;;;;;7.72;2.03;;;8.40;99.90;;;;;;6244930;22;20004;-85
2021/05/04 04:28:38;;;;;;;8.13;2.15;;;8.50;99.90;;;;;;6243059;23;20086;-80
2021/05/04 04:31:04;;;;;;;2.78;1.90;;;8.60;99.90;;;;;;6244565;23;20215;-83
2021/05/04 04:33:30;;;;;;;4.30;1.92;;;8.60;99.90;;;;;;6243553;23;20004;-81
2021/05/04 04:35:56;;;;;;;5.50;2.20;;;8.60;99.90;;;;;;6243297;23;20000;-80
2021/05/04 04:38:24;;;;;;;5.95;1.75;;;8.70;99.90;;;;;;6244534;23;20134;-80
2021/05/04 04:40:51;;;;;;;3.38;1.98;;;8.70;99.90;;;;;;6243143;23;20039;-80
2021/05/04 04:43:16;;;;;;;8.70;2.07;;;8.70;99.90;;;;;;6244642;23;20000;-80
2021/05/04 04:45:42;;;;;;;3.15;2.10;;;8.80;99.90;;;;;;6243088;23;20067;-81
2021/05/04 04:48:08;;;;;;;2.78;1.75;;;9.00;99.90;;;;;;6243916;23;19998;-81
2021/05/04 04:50:34;;;;;;;2.20;1.25;;;9.10;99.90;;;;;;6244131;23;20070;-80
2021/05/04 04:53:00;;;;;;;7.45;1.58;;;9.20;99.90;;;;;;6244589;23;20050;-80
2021/05/04 04:55:26;;;;;;;6.03;1.80;;;9.30;99.90;;;;;;6244225;23;20474;-81
2021/05/04 04:57:52;;;;;;;7.30;1.88;;;9.40;99.90;;;;;;6242609;23;20442;-81
2021/05/04 05:00:18;;;;;;;2.47;1.42;;;9.50;99.90;;;;;;6244161;23;20014;-81
2021/05/04 05:02:44;;;;;;;5.72;1.73;;;9.60;99.90;;;;;;6244054;23;20024;-82
2021/05/04 05:05:10;;;;;;;7.05;1.55;;;9.70;99.90;;;;;;6242312;23;20019;-82
2021/05/04 05:07:35;;;;;;;4.57;1.45;;;9.80;99.90;;;;;;6244395;23;20000;-82
2021/05/04 05:10:01;;;;;;;5.05;1.58;;;9.90;99.90;;;;;;6243904;22;20374;-83
2021/05/04 05:12:27;;;;;;;3.58;1.33;;;9.90;99.90;;;;;;6217290;23;20419;-83
2021/05/04 05:14:54;;;;;;;8.95;1.88;;;10.00;99.90;;;;;;6244274;23;20026;-84
2021/05/04 05:17:21;;;;;;;4.60;1.48;;;10.10;99.90;;;;;;6244187;23;20000;-84
2021/05/04 05:19:49;;;;;;;2.78;1.20;;;10.20;99.90;;;;;;6243970;23;20011;-84
2021/05/04 05:22:15;;;;;;;2.83;1.40;;;10.30;99.90;;;;;;6244127;23;20188;-82
2021/05/04 05:24:41;;;;;;;5.78;1.60;;;10.40;99.90;;;;;;6244264;23;20477;-84
2021/05/04 05:27:07;;;;;;;2.03;1.70;;;10.40;99.90;;;;;;6243770;23;20000;-84
2021/05/04 05:29:34;;;;;;;3.33;1.55;;;10.50;99.90;;;;;;6243980;23;20070;-83
2021/05/04 05:32:01;;;;;;;1.95;1.30;;;10.60;99.90;;;;;;6216802;23;20000;-83
2021/05/04 05:34:27;;;;;;;3.70;1.50;;;10.60;99.90;;;;;;6243876;23;20054;-82
2021/05/04 05:36:55;;;;;;;2.95;1.85;;;10.70;99.90;;;;;;6244020;23;20134;-80
2021/05/04 05:39:22;;;;;;;2.70;1.42;;;10.80;99.90;;;;;;6243343;23;20433;-82
2021/05/04 05:41:49;;;;;;;3.08;1.42;;;10.80;99.90;;;;;;6243866;23;20007;-83
2021/05/04 05:44:15;;;;;;;10.63;1.48;;;10.90;99.90;;;;;;6217022;23;20047;-82
2021/05/04 05:46:41;;;;;;;4.35;1.38;;;11.00;99.90;;;;;;6217062;23;20435;-78
2021/05/04 05:49:07;;;;;;;6.32;1.58;;;11.10;99.90;;;;;;6243468;23;20244;-79
2021/05/04 05:51:34;;;;;;;5.43;1.52;;;11.20;99.90;;;;;;6243918;23;19996;-81
2021/05/04 05:54:00;;;;;;;2.80;1.60;;;11.30;99.90;;;;;;6216619;23;20000;-84
2021/05/04 05:56:26;;;;;;;5.03;1.45;;;11.40;99.90;;;;;;6243969;23;20238;-80
2021/05/04 05:58:52;;;;;;;2.00;1.50;;;11.50;99.90;;;;;;6217049;23;20423;-78
2021/05/04 06:01:18;;;;;;;3.75;1.88;;;11.60;99.90;;;;;;6216849;23;20012;-81
2021/05/04 06:03:45;;;;;;;4.38;1.60;;;11.70;99.90;;;;;;6243429;23;20043;-78
2021/05/04 06:06:11;;;;;;;3.23;1.30;;;11.80;99.90;;;;;;6244140;23;20425;-81
2021/05/04 06:08:38;;;;;;;4.95;1.27;;;11.90;99.90;;;;;;6243379;23;19996;-79
2021/05/04 06:11:04;;;;;;;2.63;1.58;;;12.00;99.90;;;;;;6233203;23;20110;-80
2021/05/04 06:13:30;;;;;;;1.48;1.30;;;12.00;99.90;;;;;;6242145;23;20008;-81
2021/05/04 06:15:56;;;;;;;7.97;1.50;;;12.10;99.90;;;;;;6241752;23;20031;-82
2021/05/04 06:18:23;;;;;;;7.07;1.70;;;12.20;99.90;;;;;;6243633;23;20000;-84
2021/05/04 06:20:49;;;;;;;5.03;1.98;;;12.30;99.90;;;;;;6243353;23;20000;-83
2021/05/04 06:23:15;;;;;;;3.70;1.52;;;12.40;99.90;;;;;;6243875;23;20332;-82
2021/05/04 06:25:41;;;;;;;5.68;1.67;;;12.50;99.90;;;;;;6244223;23;20042;-82
2021/05/04 06:28:09;;;;;;;3.27;1.60;;;12.60;99.90;;;;;;6243287;23;20000;-81
2021/05/04 06:30:38;;;;;;;3.65;1.60;;;12.80;99.90;;;;;;6244143;23;20087;-80
2021/05/04 06:33:13;;;;;;;3.78;1.70;;;12.90;99.90;;;;;;6241328;23;19999;-80
2021/05/04 06:35:41;;;;;;;3.50;1.55;;;13.00;99.90;;;;;;6241714;23;20004;-80
2021/05/04 06:38:13;;;;;;;2.47;1.45;;;13.10;99.90;;;;;;6243340;23;20087;-80
2021/05/04 06:40:41;;;;;;;3.28;1.48;;;13.20;99.90;;;;;;6243233;23;20082;-78
2021/05/04 06:43:08;;;;;;;5.57;1.38;;;13.20;99.90;;;;;;6243162;23;20427;-78
2021/05/04 06:45:34;;;;;;;7.88;1.40;;;13.30;99.90;;;;;;6241786;23;20004;-78
2021/05/04 06:48:01;;;;;;;5.95;1.45;;;13.50;99.90;;;;;;6243381;23;20071;-78
2021/05/04 06:50:27;;;;;;;4.88;1.92;;;13.60;99.90;;;;;;6243010;23;20004;-78
2021/05/04 06:52:54;;;;;;;1.77;1.48;;;13.70;99.90;;;;;;6243654;23;20050;-78
2021/05/04 06:55:20;;;;;;;6.72;1.25;;;13.90;99.90;;;;;;6241770;23;20038;-78
2021/05/04 06:57:47;;;;;;;4.40;1.37;;;14.00;99.90;;;;;;6243496;23;19997;-78
2021/05/04 07:00:13;;;;;;;11.60;1.40;;;14.10;99.90;;;;;;6243248;23;20014;-77
2021/05/04 07:02:40;;;;;;;4.78;1.58;;;14.20;99.90;;;;;;6243623;23;20427;-78
2021/05/04 07:05:08;;;;;;;3.45;1.42;;;14.20;99.90;;;;;;6243076;22;20016;-77
2021/05/04 07:07:34;;;;;;;4.57;1.30;;;14.30;99.90;;;;;;6241902;23;20000;-77
2021/05/04 07:10:01;;;;;;;2.85;1.20;;;14.40;99.90;;;;;;6243251;22;20026;-77
2021/05/04 07:12:27;;;;;;;2.13;1.30;;;14.50;99.90;;;;;;6216453;23;20000;-78
2021/05/04 07:14:53;;;;;;;8.35;1.60;;;14.60;99.90;;;;;;6215897;23;20038;-78
2021/05/04 07:17:19;;;;;;;11.30;2.28;;;14.70;99.90;;;;;;6216751;23;20000;-78
2021/05/04 07:19:45;;;;;;;10.63;1.90;;;14.90;99.90;;;;;;6215650;23;20008;-78
2021/05/04 07:22:12;;;;;;;5.68;2.10;;;15.00;99.90;;;;;;6243514;23;20026;-78
2021/05/04 07:24:39;;;;;;;12.70;2.40;;;15.10;99.90;;;;;;6216493;23;20095;-78
2021/05/04 07:27:09;;;;;;;22.13;3.30;;;15.00;99.90;;;;;;6243076;23;20003;-78
2021/05/04 07:29:37;;;;;;;16.27;2.45;;;15.00;99.90;;;;;;6242329;23;20007;-78
2021/05/04 07:32:04;;;;;;;20.90;3.03;;;15.00;99.90;;;;;;6243359;23;20031;-79
2021/05/04 07:34:30;;;;;;;6.22;1.63;;;15.00;99.90;;;;;;6217845;23;20008;-79
2021/05/04 07:36:55;;;;;;;10.70;2.40;;;15.10;99.90;;;;;;6245164;23;20049;-78
2021/05/04 07:39:22;;;;;;;13.98;2.35;;;15.10;99.90;;;;;;6244817;23;20011;-78
2021/05/04 07:41:47;;;;;;;10.63;2.33;;;15.20;99.90;;;;;;6245279;23;20000;-78
2021/05/04 07:44:13;;;;;;;11.45;2.30;;;15.20;99.90;;;;;;6244770;23;20087;-78
2021/05/04 07:46:39;;;;;;;9.90;2.13;;;15.30;99.90;;;;;;6244658;23;20062;-79
2021/05/04 07:49:09;;;;;;;11.95;2.05;;;15.40;99.90;;;;;;6244730;23;19997;-79
2021/05/04 07:51:35;;;;;;;4.18;1.77;;;15.50;99.90;;;;;;6245066;23;20071;-80
2021/05/04 07:54:00;;;;;;;6.22;1.50;;;15.70;99.90;;;;;;6244841;23;20031;-79
2021/05/04 07:56:26;;;;;;;11.98;1.63;;;15.90;99.90;;;;;;6244706;23;19996;-79
2021/05/04 07:58:52;;;;;;;8.38;1.65;;;16.00;99.90;;;;;;6244895;23;20493;-79
2021/05/04 08:01:18;;;;;;;5.22;1.67;;;16.00;99.90;;;;;;6244599;23;19996;-78
2021/05/04 08:03:44;;;;;;;8.27;2.25;;;16.10;99.90;;;;;;6244510;23;20571;-78
2021/05/04 08:06:09;;;;;;;3.65;1.90;;;16.10;99.90;;;;;;6245013;23;20027;-79
2021/05/04 08:08:35;;;;;;;19.35;2.17;;;16.10;99.90;;;;;;6244464;23;20331;-78
2021/05/04 08:11:01;;;;;;;6.90;1.95;;;16.20;99.90;;;;;;6244671;22;20012;-78
2021/05/04 08:13:26;;;;;;;11.50;2.53;;;16.20;99.90;;;;;;6244566;23;20000;-78
2021/05/04 08:15:53;;;;;;;9.25;2.40;;;16.20;99.90;;;;;;6244555;23;20004;-78
2021/05/04 08:18:19;;;;;;;6.87;2.27;;;16.10;99.90;;;;;;6240416;23;20000;-78
2021/05/04 08:20:53;;;;;;;12.15;3.05;;;16.10;99.90;;;;;;6240429;23;20007;-78
2021/05/04 08:23:23;;;;;;;6.57;2.28;;;16.10;99.90;;;;;;6239996;23;20004;-78
2021/05/04 08:25:49;;;;;;;18.30;2.70;;;16.10;99.90;;;;;;6240278;23;20019;-78
2021/05/04 08:28:14;;;;;;;3.35;1.48;;;16.10;99.90;;;;;;6213117;23;20000;-78
2021/05/04 08:30:40;;;;;;;12.27;1.80;;;16.10;99.90;;;;;;6239669;23;20054;-79
2021/05/04 08:33:06;;;;;;;6.78;1.50;;;16.10;99.90;;;;;;6213071;23;20394;-79
2021/05/04 08:35:32;;;;;;;6.03;2.22;;;16.20;99.90;;;;;;6239986;23;20091;-78
2021/05/04 08:37:58;;;;;;;3.95;1.67;;;16.40;99.90;;;;;;6240191;23;20020;-78
2021/05/04 08:40:26;;;;;;;12.40;1.40;;;16.40;99.90;;;;;;6239916;23;20099;-78
2021/05/04 08:42:52;;;;;;;8.25;1.98;;;16.50;99.90;;;;;;6239774;23;20343;-78
2021/05/04 08:45:19;;;;;;;12.57;2.53;;;16.60;99.90;;;;;;6239433;23;20019;-78
2021/05/04 08:47:47;;;;;;;7.57;2.40;;;16.70;99.90;;;;;;6239927;23;20407;-78
2021/05/04 08:50:16;;;;;;;7.03;1.95;;;16.70;99.90;;;;;;6239681;23;20007;-78
2021/05/04 08:52:42;;;;;;;19.65;3.22;;;16.70;99.90;;;;;;6240221;23;20510;-78
2021/05/04 08:55:09;;;;;;;7.65;1.80;;;16.80;99.90;;;;;;6239843;23;20007;-79
2021/05/04 08:57:38;;;;;;;;;;;16.90;99.90;;;;;;6240141;23;19996;-78
2021/05/04 09:00:09;;;;;;;5.55;1.75;;;17.00;99.90;;;;;;6239642;23;19929;-78
2021/05/04 09:02:56;;;;;;;3.47;1.80;;;17.10;99.90;;;;;;6239996;23;20079;-79
2021/05/04 09:05:22;;;;;;;8.68;2.20;;;17.10;99.90;;;;;;6239555;23;20083;-79
2021/05/04 09:07:57;;;;;;;17.05;1.80;;;17.00;99.90;;;;;;6212819;23;20004;-79
2021/05/04 09:15:46;;;;;;;11.13;1.55;;;17.30;99.80;;;;;;6242123;23;20039;-78
2021/05/04 09:21:11;;;;;;;5.50;2.08;;;17.50;99.90;;;;;;6241397;23;20007;-79
2021/05/04 09:23:42;;;;;;;4.20;1.52;;;17.80;99.90;;;;;;6238959;23;20434;-79
2021/05/04 09:26:22;;;;;;;4.97;1.52;;;18.20;99.50;;;;;;6239740;23;20043;-79
2021/05/04 09:28:50;;;;;;;3.97;1.10;;;18.10;98.30;;;;;;6237684;23;20000;-79
2021/05/04 09:31:42;;;;;;;10.10;1.50;;;18.30;98.70;;;;;;6239547;23;20467;-80
2021/05/04 09:34:13;;;;;;;8.35;1.85;;;18.50;99.50;;;;;;6235169;22;20006;-79
2021/05/04 09:36:40;;;;;;;5.38;2.22;;;18.50;96.90;;;;;;6238940;23;20383;-80
2021/05/04 09:39:08;;;;;;;5.90;2.30;;;18.50;99.20;;;;;;6239370;23;20004;-81
2021/05/04 09:41:34;;;;;;;7.57;2.45;;;18.80;98.50;;;;;;6239742;22;20369;-80
2021/05/04 09:44:00;;;;;;;5.32;1.27;;;18.60;98.90;;;;;;6239351;23;20453;-80
2021/05/04 09:46:45;;;;;;;4.43;1.70;;;18.40;95.50;;;;;;6239396;23;20038;-80
2021/05/04 09:49:24;;;;;;;4.35;1.88;;;18.20;98.20;;;;;;6236827;23;20040;-79
2021/05/04 09:51:51;;;;;;;14.48;2.40;;;18.10;97.00;;;;;;6237876;23;20008;-79
2021/05/04 09:54:30;;;;;;;17.20;2.03;;;18.00;97.10;;;;;;6239211;23;20076;-80
2021/05/04 09:56:56;;;;;;;4.55;1.70;;;17.80;97.70;;;;;;6239402;23;20242;-80
2021/05/04 09:59:23;;;;;;;8.35;1.65;;;17.80;97.60;;;;;;6238887;23;20008;-81
2021/05/04 10:01:49;;;;;;;;;;;17.40;98.00;;;;;;6239234;23;20004;-80
2021/05/04 10:04:18;;;;;;;7.30;1.73;;;17.20;98.30;;;;;;6238984;22;19914;-81
2021/05/04 10:06:44;;;;;;;12.48;1.80;;;17.30;99.20;;;;;;6237795;23;20000;-80
2021/05/04 10:09:15;;;;;;;4.45;1.63;;;17.40;99.30;;;;;;6236643;23;20008;-80
2021/05/04 10:11:41;;;;;;;11.63;1.50;;;17.30;99.00;;;;;;6238982;22;20215;-81
2021/05/04 10:14:07;;;;;;;10.20;1.95;;;17.20;99.80;;;;;;6239867;23;20477;-81
2021/05/04 10:16:33;;;;;;;7.88;1.90;;;17.00;99.90;;;;;;6239466;23;20000;-81
2021/05/04 10:19:01;;;;;;;4.03;1.73;;;17.20;99.90;;;;;;6239778;23;20392;-80
2021/05/04 10:21:27;;;;;;;8.48;2.10;;;17.30;99.50;;;;;;6239780;23;19996;-80
2021/05/04 10:23:53;;;;;;;6.32;1.45;;;17.40;99.90;;;;;;6212675;23;20477;-79
2021/05/04 10:26:21;;;;;;;6.38;1.73;;;17.50;99.70;;;;;;6215769;23;20000;-81
2021/05/04 10:28:55;;;;;;;5.55;2.28;;;17.30;99.90;;;;;;6215575;23;20419;-81
2021/05/04 10:31:39;;;;;;;5.70;2.00;;;17.40;99.60;;;;;;6239151;23;20004;-80
2021/05/04 10:34:24;;;;;;;3.50;1.80;;;17.30;99.90;;;;;;6239848;23;20104;-81
2021/05/04 10:36:58;;;;;;;3.60;2.10;;;17.60;99.90;;;;;;6239886;23;20000;-79
2021/05/04 10:39:33;;;;;;;8.50;2.15;;;17.50;99.90;;;;;;6212456;23;20065;-80
2021/05/04 10:42:00;;;;;;;7.93;2.63;;;17.30;99.90;;;;;;6213018;23;20030;-79
2021/05/04 10:44:26;;;;;;;8.90;2.55;;;17.40;99.90;;;;;;6239233;23;20044;-79
2021/05/04 10:46:52;;;;;;;6.55;2.00;;;17.40;99.90;;;;;;6213111;23;20007;-79
2021/05/04 10:49:39;;;;;;;7.22;2.45;;;17.10;99.90;;;;;;6212690;23;20040;-79
2021/05/04 10:52:05;;;;;;;5.88;2.47;;;17.00;99.90;;;;;;6239428;23;20054;-80
2021/05/04 10:54:54;;;;;;;7.90;2.75;;;16.70;99.90;;;;;;6239611;23;20465;-78
2021/05/04 10:57:20;;;;;;;5.32;2.17;;;16.40;99.90;;;;;;6212320;23;20008;-78
2021/05/04 10:59:46;;;;;;;8.57;2.30;;;16.30;99.90;;;;;;6212669;23;20004;-80
2021/05/04 11:02:26;;;;;;;14.75;2.75;;;16.40;99.90;;;;;;6212988;23;20008;-81
2021/05/04 11:04:55;;;;;;;5.95;1.90;;;16.60;99.90;;;;;;6239670;23;20012;-79
2021/05/04 11:08:06;;;;;;;7.20;2.03;;;16.90;99.90;;;;;;6241171;23;20010;-80
2021/05/04 11:10:31;;;;;;;3.60;2.17;;;16.90;99.90;;;;;;6217660;23;20427;-80
2021/05/04 11:12:57;;;;;;;4.30;1.85;;;17.20;99.90;;;;;;6240208;23;20050;-82
2021/05/04 11:15:28;;;;;;;4.97;2.10;;;17.30;99.90;;;;;;6241780;23;20001;-83
2021/05/04 11:17:54;;;;;;;4.43;1.88;;;17.10;99.90;;;;;;6240265;23;20012;-79
2021/05/04 11:20:35;;;;;;;6.40;2.33;;;17.10;99.90;;;;;;6241034;22;20042;-80
2021/05/04 11:23:02;;;;;;;15.48;3.25;;;17.00;99.90;;;;;;6241566;23;20455;-80
2021/05/04 11:25:35;;;;;;;;;;;16.80;99.90;;;;;;6244575;22;20047;-79
2021/05/04 11:28:02;;;;;;;7.45;2.70;;;16.90;99.90;;;;;;6245780;22;19974;-83
2021/05/04 11:30:37;;;;;;;5.63;2.97;;;16.70;99.90;;;;;;6244187;23;20008;-81
2021/05/04 11:33:26;;;;;;;5.03;2.08;;;16.60;99.90;;;;;;6245168;23;20087;-79
2021/05/04 11:35:52;;;;;;;5.57;3.90;;;16.40;99.90;;;;;;6243346;23;20465;-82
2021/05/04 11:38:19;;;;;;;5.93;2.53;;;16.30;99.90;;;;;;6244646;23;20000;-80
2021/05/04 11:40:44;;;;;;;;;;;16.20;99.90;;;;;;6245777;23;20449;-79
2021/05/04 11:43:15;;;;;;;8.48;3.20;;;16.20;99.90;;;;;;6244873;23;19900;-81
2021/05/04 11:45:41;;;;;;;5.53;2.03;;;16.10;99.90;;;;;;6245362;23;20008;-80
2021/05/04 11:48:07;;;;;;;9.68;2.10;;;16.40;99.90;;;;;;6245400;23;20013;-82
2021/05/04 11:50:35;;;;;;;6.95;1.30;;;16.70;99.90;;;;;;6244913;23;20014;-82
2021/05/04 11:53:04;;;;;;;5.85;1.45;;;16.70;99.90;;;;;;6244074;23;20007;-80
2021/05/04 11:55:37;;;;;;;6.35;2.30;;;17.00;99.90;;;;;;6245508;22;20003;-81
2021/05/04 11:58:13;;;;;;;13.02;2.28;;;17.00;99.90;;;;;;6244370;23;20011;-80
2021/05/04 12:00:39;;;;;;;9.88;1.80;;;16.80;99.90;;;;;;6244049;23;19996;-81
2021/05/04 12:03:23;;;;;;;8.18;2.05;;;16.70;99.90;;;;;;6242295;23;20015;-82
2021/05/04 12:05:49;;;;;;;6.75;1.55;;;17.00;99.90;;;;;;6240396;23;20099;-81
2021/05/04 12:08:15;;;;;;;3.13;1.27;;;18.80;99.90;;;;;;6241056;23;20565;-83
2021/05/04 12:10:47;;;;;;;6.18;1.80;;;19.90;99.90;;;;;;6240629;22;20016;-82
2021/05/04 12:13:21;;;;;;;4.43;1.65;;;21.00;99.90;;;;;;6240510;23;20011;-77
2021/05/04 12:15:56;;;;;;;7.85;1.92;;;21.60;98.00;;;;;;6240357;23;20112;-78
2021/05/04 12:18:23;;;;;;;4.00;1.42;;;22.20;97.60;;;;;;6240508;23;19996;-79
2021/05/04 12:20:56;;;;;;;5.32;1.52;;;23.70;94.20;;;;;;6241216;23;20031;-79
2021/05/04 12:23:29;;;;;;;3.88;1.42;;;24.90;91.40;;;;;;6241039;23;20053;-83
2021/05/04 12:26:17;;;;;;;8.07;1.90;;;25.90;89.70;;;;;;6240671;23;20008;-78
2021/05/04 12:28:47;;;;;;;;;;;26.80;82.70;;;;;;6239873;23;20450;-80
2021/05/04 12:31:18;;;;;;;11.90;2.15;;;26.50;80.20;;;;;;6239715;23;19904;-78
2021/05/04 12:33:49;;;;;;;2.25;1.48;;;26.80;76.70;;;;;;6235995;23;20464;-76
2021/05/04 12:36:32;;;;;;;9.93;2.05;;;26.30;76.70;;;;;;6239457;23;20335;-78
2021/05/04 12:39:00;;;;;;;7.57;1.35;;;25.50;80.00;;;;;;6239275;23;20058;-78
2021/05/04 12:41:34;;;;;;;4.30;1.55;;;25.20;82.30;;;;;;6239528;23;20010;-80
2021/05/04 12:44:20;;;;;;;6.05;1.38;;;25.60;79.70;;;;;;6239379;23;20050;-79
2021/05/04 12:46:47;;;;;;;4.82;1.55;;;26.50;77.00;;;;;;6238973;23;20012;-77
2021/05/04 12:49:14;;;;;;;9.45;1.73;;;25.80;77.50;;;;;;6239487;23;20008;-80
2021/05/04 12:51:48;;;;;;;7.32;1.60;;;26.10;77.90;;;;;;6239434;23;20004;-76
2021/05/04 12:54:17;;;;;;;5.70;1.30;;;26.70;75.30;;;;;;6212518;23;20050;-77
2021/05/04 12:56:56;;;;;;;7.15;1.70;;;26.60;75.90;;;;;;6239542;23;20000;-77
2021/05/04 12:59:32;;;;;;;7.78;1.80;;;27.40;70.10;;;;;;6239214;23;20004;-76
2021/05/04 13:02:05;;;;;;;8.10;1.70;;;26.70;73.10;;;;;;6239244;23;20427;-75